Reynoldsville, PA (15851)

8:55 AM EDT on March 30, 2015 (GMT -0400)
Holly Terrace | | Change Station
CLOSE
Current Station
Personal Weather Station
Location: Falls Creek, PA
Elevation: 1473 ft
Nearby Weather Stations

Elev 1473 ft 41.14 °N, 78.81 °W | Updated 12 seconds ago

Overcast
Overcast
38.3 °F
Feels Like 30 °F
N
15.0
Wind Variable Wind from SW
Gusts 15.0 mph

Today
High -- | Low -- °F
--% Chance of Precip.
Yesterday
High -- | Low -- °F
Precip. -- in
7:02 AM 7:38 PM
Waxing Gibbous, 79% visible
Pressure 29.78 in
Visibility 10.0 miles
Clouds Few 1600 ft
Few 2500 ft
Overcast 3700 ft
Windchill 30 °F
Dew Point 36 °F
Humidity 93%
Rainfall 0.02 in
Snow Depth Not available.
UV 0 out of 12
Pollen 6.20 out of 12
Air Quality Not available.
Flu Activity Not available.
SPECI KDUJ 301200Z AUTO 27013G21KT 10SM FEW016 FEW025 OVC037 03/00 A2978 RMK AO2 T00330000

More Conditions Fewer Conditions

Pressure 29.78 in
Visibility 10.0 miles
Clouds Few 1600 ft
Few 2500 ft
Overcast 3700 ft
Windchill 30 °F
Dew Point 36 °F
Humidity 93%
Rainfall 0.02 in
Snow Depth Not available.
UV 0 out of 12
Pollen 6.20 out of 12
Air Quality Not available.
Flu Activity Not available.
SPECI KDUJ 301200Z AUTO 27013G21KT 10SM FEW016 FEW025 OVC037 03/00 A2978 RMK AO2 T00330000

More Conditions Fewer Conditions

10-Day Weather Forecast

Almanac

Astronomy

Mar. 30, 2015 Rise Set
Actual Time
Civil Twilight
Nautical Twilight
Astronomical Twilight
Moon
Length of Visible Light
Length of Day
Tomorrow will be .
, % of the Moon is Illuminated

Today's Extremes

State Highs State Lows

Community

WunderPhotos

Upload Photos

1,809,464 photos uploaded!

WunderBlogs® & News

Nearby

Air Quality

  Air Quality AQ Index Pollutant
Not available.

Snow Depth

Station Depth Elevation

Earthquake Activity

City Distance Mag. Time & Date
Minimum magnitude displayed is 2.5.

Coastal Water Temperatures

Place Temperature

Stations

Nearby Weather Stations

Station Location Temp. Windchill Dew Point Humidity Wind Precip. Elev Updated Type